Time;durP1;ratioP1;P1;durP2;ratioP2;P2;SDS_P1;SDS_P2;PMS_P1;PMS_P2;Temp;Humidity;BMP_temperature;BMP_pressure;BME280_temperature;BME280_humidity;BME280_pressure;Samples;Min_cycle;Max_cycle;Signal;HPM_P1;HPM_P2
2023/08/18 00:01:29;;;;;;;6.50;3.78;;;18.10;56.70;;;;;;5072182;28;20127;-59
2023/08/18 00:03:58;;;;;;;7.78;4.13;;;17.60;54.10;;;;;;5075841;28;20393;-59
2023/08/18 00:06:24;;;;;;;7.95;4.95;;;17.50;49.10;;;;;;5074107;28;20170;-57
2023/08/18 00:08:50;;;;;;;13.13;4.38;;;;;;;;;;5075645;28;20115;-57
2023/08/18 00:11:16;;;;;;;7.25;4.50;;;17.90;62.10;;;;;;5071181;28;20047;-56
2023/08/18 00:13:42;;;;;;;8.48;4.28;;;17.80;48.90;;;;;;5062504;28;20048;-57
2023/08/18 00:16:07;;;;;;;6.15;3.83;;;17.30;63.50;;;;;;5071078;28;20036;-57
2023/08/18 00:18:33;;;;;;;8.02;4.15;;;17.40;75.40;;;;;;5070651;28;20119;-58
2023/08/18 00:20:58;;;;;;;8.65;4.30;;;17.50;72.40;;;;;;5071089;28;20497;-58
2023/08/18 00:23:24;;;;;;;7.75;4.20;;;17.60;81.90;;;;;;5068851;28;20037;-58
2023/08/18 00:25:50;;;;;;;7.97;3.58;;;17.40;88.40;;;;;;5069748;28;20036;-58
2023/08/18 00:28:16;;;;;;;8.75;3.90;;;17.40;93.90;;;;;;5070901;28;20064;-58
2023/08/18 00:30:41;;;;;;;7.68;4.13;;;17.80;90.00;;;;;;5070290;28;20036;-58
2023/08/18 00:33:07;;;;;;;6.35;3.63;;;17.70;92.30;;;;;;5069988;28;20093;-60
2023/08/18 00:35:34;;;;;;;6.50;3.92;;;17.50;90.60;;;;;;5070596;28;20119;-58
2023/08/18 00:37:59;;;;;;;7.40;3.80;;;17.30;99.20;;;;;;5069754;28;20055;-58
2023/08/18 00:40:25;;;;;;;5.68;3.30;;;17.40;99.90;;;;;;5069836;28;20116;-58
2023/08/18 00:42:51;;;;;;;5.65;3.00;;;17.50;95.20;;;;;;5070224;28;20526;-58
2023/08/18 00:45:17;;;;;;;5.88;3.40;;;17.40;98.00;;;;;;5070674;28;20067;-58
2023/08/18 00:47:43;;;;;;;5.63;3.20;;;;;;;;;;5071656;28;20106;-58
2023/08/18 00:50:10;;;;;;;5.75;3.15;;;;;;;;;;5071746;28;20086;-58
2023/08/18 00:52:40;;;;;;;6.55;3.20;;;17.30;98.50;;;;;;5064359;28;20049;-58
2023/08/18 00:55:07;;;;;;;6.28;3.50;;;17.70;99.90;;;;;;5072873;28;20458;-59
2023/08/18 00:57:35;;;;;;;7.63;3.60;;;17.50;99.90;;;;;;5072183;28;20044;-59
2023/08/18 01:00:02;;;;;;;7.40;3.85;;;;;;;;;;5070267;28;20048;-59
2023/08/18 01:02:28;;;;;;;5.90;3.03;;;17.30;99.90;;;;;;5069763;28;20064;-57
2023/08/18 01:04:56;;;;;;;5.70;3.30;;;;;;;;;;5069912;28;20397;-59
2023/08/18 01:07:22;;;;;;;5.72;3.53;;;17.30;99.80;;;;;;5073365;28;20045;-58
2023/08/18 01:09:48;;;;;;;7.32;3.30;;;17.30;99.90;;;;;;5077612;28;20477;-59
2023/08/18 01:12:35;;;;;;;6.20;3.20;;;17.20;95.60;;;;;;5069971;28;20439;-59
2023/08/18 01:15:19;;;;;;;8.18;3.00;;;17.60;97.90;;;;;;5066970;28;20044;-59
2023/08/18 01:17:55;;;;;;;6.43;3.08;;;;;;;;;;5069659;28;20080;-59
2023/08/18 01:20:23;;;;;;;7.07;3.28;;;17.00;99.90;;;;;;5068978;28;20040;-59
2023/08/18 01:22:58;;;;;;;6.85;3.03;;;17.90;81.10;;;;;;5066764;28;20048;-59
2023/08/18 01:25:24;;;;;;;5.70;2.30;;;17.30;93.40;;;;;;5069321;28;20558;-59
2023/08/18 01:27:51;;;;;;;8.50;3.40;;;17.00;92.60;;;;;;5068001;28;20078;-59
2023/08/18 01:30:18;;;;;;;6.88;3.15;;;17.20;91.40;;;;;;5069137;28;20554;-59
2023/08/18 01:32:51;;;;;;;6.03;3.00;;;16.90;91.20;;;;;;5072783;28;20028;-59
2023/08/18 01:35:18;;;;;;;6.57;2.92;;;;;;;;;;5064815;28;20064;-58
2023/08/18 01:37:45;;;;;;;6.63;2.83;;;;;;;;;;5067304;28;20486;-58
2023/08/18 01:40:12;;;;;;;9.02;3.20;;;;;;;;;;5060956;28;20032;-59
2023/08/18 01:42:38;;;;;;;6.55;3.38;;;17.00;94.80;;;;;;5065178;28;20515;-59
2023/08/18 01:45:05;;;;;;;6.03;3.08;;;16.90;95.30;;;;;;5068554;28;20052;-57
2023/08/18 01:47:31;;;;;;;5.32;2.88;;;;;;;;;;5067744;28;20040;-59
2023/08/18 01:49:57;;;;;;;8.32;3.05;;;;;;;;;;5065205;28;20500;-59
2023/08/18 01:52:23;;;;;;;8.90;3.70;;;;;;;;;;5066706;28;20216;-58
2023/08/18 01:54:51;;;;;;;6.88;2.75;;;;;;;;;;5068838;28;20113;-59
2023/08/18 01:57:17;;;;;;;6.22;3.10;;;16.70;99.90;;;;;;5085614;28;21255;-59
2023/08/18 01:59:42;;;;;;;6.70;3.08;;;16.70;99.90;;;;;;5068065;28;20033;-59
2023/08/18 02:02:08;;;;;;;6.00;3.47;;;16.70;99.90;;;;;;5071194;28;20493;-59
2023/08/18 02:04:33;;;;;;;5.70;2.95;;;16.90;99.90;;;;;;5053255;28;20173;-59
2023/08/18 02:06:59;;;;;;;6.78;3.47;;;;;;;;;;5068722;28;20032;-56
2023/08/18 02:09:25;;;;;;;6.35;3.28;;;16.70;99.90;;;;;;5068427;28;20032;-57
2023/08/18 02:11:51;;;;;;;5.97;2.78;;;17.00;99.90;;;;;;5063714;28;20047;-56
2023/08/18 02:14:17;;;;;;;6.30;3.47;;;16.90;99.90;;;;;;5069909;28;20071;-56
2023/08/18 02:16:42;;;;;;;7.47;3.40;;;16.60;99.90;;;;;;5067932;28;20059;-58
2023/08/18 02:19:08;;;;;;;6.13;3.25;;;16.60;99.90;;;;;;5063922;28;20406;-58
2023/08/18 02:21:34;;;;;;;6.15;3.40;;;;;;;;;;5069236;28;20039;-58
2023/08/18 02:24:00;;;;;;;6.35;3.42;;;;;;;;;;5063641;28;20063;-58
2023/08/18 02:26:26;;;;;;;5.55;3.20;;;16.50;99.90;;;;;;5066560;28;20039;-57
2023/08/18 02:28:51;;;;;;;7.47;3.65;;;16.80;99.90;;;;;;5067624;28;20405;-58
2023/08/18 02:31:17;;;;;;;6.38;3.50;;;16.80;99.90;;;;;;5065921;28;20036;-57
2023/08/18 02:33:43;;;;;;;5.80;3.20;;;15.90;99.90;;;;;;5070286;28;20044;-57
2023/08/18 02:36:09;;;;;;;5.95;3.00;;;;;;;;;;5068550;28;20549;-57
2023/08/18 02:38:35;;;;;;;6.13;3.40;;;;;;;;;;5071312;28;20159;-58
2023/08/18 02:41:01;;;;;;;7.57;3.72;;;16.40;99.90;;;;;;5069066;28;20032;-57
2023/08/18 02:43:27;;;;;;;9.85;3.90;;;16.30;99.90;;;;;;5067912;28;20375;-57
2023/08/18 02:45:56;;;;;;;6.60;3.95;;;;;;;;;;5070645;28;20033;-57
2023/08/18 02:48:26;;;;;;;5.88;3.42;;;16.30;99.90;;;;;;5084694;22;20112;-58
2023/08/18 02:51:02;;;;;;;6.78;4.30;;;15.70;99.90;;;;;;5032040;28;20514;-58
2023/08/18 02:53:28;;;;;;;6.85;3.58;;;16.00;99.90;;;;;;5027335;28;20045;-57
2023/08/18 02:55:58;;;;;;;6.32;3.28;;;16.00;99.90;;;;;;5028015;28;20064;-58
2023/08/18 02:58:28;;;;;;;5.85;3.17;;;16.40;99.90;;;;;;5009924;28;20041;-58
2023/08/18 03:00:55;;;;;;;7.00;3.70;;;16.20;99.90;;;;;;5028139;28;20033;-57
2023/08/18 03:03:21;;;;;;;6.47;3.40;;;16.10;99.90;;;;;;5035438;28;20053;-58
2023/08/18 03:05:47;;;;;;;6.90;4.03;;;15.50;99.90;;;;;;5013251;28;20043;-57
2023/08/18 03:08:13;;;;;;;6.15;3.65;;;15.60;99.90;;;;;;5014305;28;20503;-58
2023/08/18 03:10:38;;;;;;;6.43;3.90;;;16.50;99.90;;;;;;5033132;28;20045;-58
2023/08/18 03:13:04;;;;;;;6.65;3.38;;;16.40;99.90;;;;;;5031271;28;20105;-56
2023/08/18 03:15:31;;;;;;;6.63;3.65;;;;;;;;;;5031601;28;20042;-57
2023/08/18 03:17:57;;;;;;;6.20;3.63;;;15.60;99.90;;;;;;5036106;28;20115;-58
2023/08/18 03:20:22;;;;;;;8.55;3.40;;;16.40;99.90;;;;;;5032538;28;20454;-58
2023/08/18 03:22:48;;;;;;;5.85;3.28;;;16.00;99.90;;;;;;5031027;28;20065;-58
2023/08/18 03:25:14;;;;;;;6.20;3.67;;;15.70;99.90;;;;;;5035757;28;20072;-58
2023/08/18 03:27:40;;;;;;;6.35;4.32;;;15.90;99.90;;;;;;5031010;28;20061;-58
2023/08/18 03:30:07;;;;;;;6.82;4.20;;;16.00;99.90;;;;;;5031365;28;20033;-58
2023/08/18 03:32:33;;;;;;;6.80;3.63;;;16.60;99.90;;;;;;5033890;28;20038;-58
2023/08/18 03:34:58;;;;;;;10.07;3.97;;;15.80;99.90;;;;;;5031225;28;20041;-56
2023/08/18 03:37:24;;;;;;;6.38;3.70;;;;;;;;;;5031214;28;20048;-57
2023/08/18 03:39:54;;;;;;;6.65;3.60;;;15.40;99.90;;;;;;5035247;28;20214;-58
2023/08/18 03:42:21;;;;;;;8.43;4.22;;;16.10;99.90;;;;;;5031302;28;20139;-57
2023/08/18 03:44:47;;;;;;;6.35;3.15;;;16.00;99.90;;;;;;5004838;28;20057;-58
2023/08/18 03:47:12;;;;;;;7.05;3.78;;;16.20;99.90;;;;;;5031908;28;20663;-58
2023/08/18 03:49:38;;;;;;;6.18;3.75;;;16.40;99.90;;;;;;5031130;28;20034;-58
2023/08/18 03:52:04;;;;;;;7.32;3.83;;;15.70;99.90;;;;;;5029671;28;20065;-57
2023/08/18 03:54:30;;;;;;;7.00;4.03;;;16.70;99.90;;;;;;5010459;28;20041;-58
2023/08/18 03:56:58;;;;;;;6.85;3.60;;;16.50;99.90;;;;;;5028018;28;20037;-57
2023/08/18 03:59:23;;;;;;;6.70;4.05;;;16.30;99.90;;;;;;5031683;28;20526;-58
2023/08/18 04:01:49;;;;;;;6.88;3.70;;;16.90;99.90;;;;;;5011150;28;20042;-59
2023/08/18 04:04:15;;;;;;;7.20;4.00;;;;;;;;;;5017878;28;20025;-58
2023/08/18 04:06:40;;;;;;;6.40;3.70;;;16.70;99.90;;;;;;5031648;28;20033;-58
2023/08/18 04:09:13;;;;;;;7.68;4.05;;;16.20;99.90;;;;;;5036620;28;20041;-58
2023/08/18 04:11:39;;;;;;;8.63;4.25;;;15.80;99.90;;;;;;5033289;28;20081;-58
2023/08/18 04:14:05;;;;;;;7.32;3.67;;;15.70;99.90;;;;;;5032831;28;20068;-58
2023/08/18 04:16:34;;;;;;;7.65;3.60;;;16.80;99.90;;;;;;5031429;28;20507;-58
2023/08/18 04:19:03;;;;;;;10.40;4.40;;;17.00;99.90;;;;;;5030587;28;20087;-57
2023/08/18 04:21:29;;;;;;;9.52;5.00;;;16.40;99.90;;;;;;5015386;28;20460;-57
2023/08/18 04:23:55;;;;;;;9.65;4.50;;;16.60;99.90;;;;;;5029798;28;20178;-58
2023/08/18 04:26:21;;;;;;;10.57;4.90;;;16.50;99.90;;;;;;5032772;28;20166;-58
2023/08/18 04:28:47;;;;;;;8.50;4.25;;;;;;;;;;5030530;28;20546;-58
2023/08/18 04:31:13;;;;;;;8.02;4.25;;;17.10;99.90;;;;;;5010970;28;20041;-56
2023/08/18 04:33:38;;;;;;;8.68;4.93;;;16.50;99.90;;;;;;5009780;28;20366;-58
2023/08/18 04:36:04;;;;;;;10.68;5.28;;;16.90;99.90;;;;;;5027018;28;20380;-58
2023/08/18 04:38:30;;;;;;;10.30;5.75;;;16.10;99.90;;;;;;5023330;28;20127;-60
2023/08/18 04:40:57;;;;;;;8.77;4.50;;;16.70;99.90;;;;;;5026526;28;20678;-59
2023/08/18 04:43:23;;;;;;;8.98;5.05;;;16.90;99.90;;;;;;5011577;28;20041;-60
2023/08/18 04:45:49;;;;;;;9.02;4.55;;;17.20;99.90;;;;;;5032617;28;20191;-59
2023/08/18 04:48:14;;;;;;;12.38;6.13;;;17.10;99.90;;;;;;5029064;28;20069;-59
2023/08/18 04:50:40;;;;;;;9.77;5.78;;;17.00;99.90;;;;;;5030120;28;20384;-59
2023/08/18 04:53:06;;;;;;;10.40;5.43;;;16.80;99.90;;;;;;5026050;28;20041;-59
2023/08/18 04:55:33;;;;;;;12.60;6.55;;;16.80;99.90;;;;;;5029779;28;20073;-60
2023/08/18 04:57:59;;;;;;;9.55;5.28;;;17.00;99.90;;;;;;5027902;28;20033;-59
2023/08/18 05:00:25;;;;;;;10.55;5.75;;;16.60;99.90;;;;;;5030615;28;20517;-60
2023/08/18 05:02:51;;;;;;;9.77;5.80;;;16.90;99.90;;;;;;5030481;28;20045;-60
2023/08/18 05:05:19;;;;;;;12.13;6.70;;;17.00;99.90;;;;;;5031340;28;20038;-60
2023/08/18 05:07:45;;;;;;;12.20;6.07;;;16.30;99.90;;;;;;5022360;28;20495;-60
2023/08/18 05:10:11;;;;;;;9.60;5.78;;;17.00;99.90;;;;;;5021608;28;20034;-59
2023/08/18 05:12:37;;;;;;;10.05;5.50;;;17.30;99.90;;;;;;5029265;28;20037;-59
2023/08/18 05:15:03;;;;;;;10.65;5.53;;;17.00;99.90;;;;;;5037463;28;20114;-59
2023/08/18 05:17:29;;;;;;;10.65;5.95;;;17.00;99.90;;;;;;5030669;28;20042;-59
2023/08/18 05:19:55;;;;;;;9.70;5.45;;;17.30;99.90;;;;;;5027319;28;20033;-60
2023/08/18 05:22:24;;;;;;;10.38;5.05;;;17.30;99.90;;;;;;5025790;28;20045;-60
2023/08/18 05:24:49;;;;;;;9.35;5.22;;;17.10;99.90;;;;;;5012831;28;20137;-60
2023/08/18 05:27:16;;;;;;;10.75;5.25;;;17.10;99.90;;;;;;5029507;28;20124;-58
2023/08/18 05:29:42;;;;;;;10.82;4.97;;;17.20;99.90;;;;;;5026973;28;20048;-59
2023/08/18 05:32:08;;;;;;;12.23;5.38;;;17.10;99.90;;;;;;5032307;28;20037;-60
2023/08/18 05:34:33;;;;;;;7.85;4.72;;;17.30;99.90;;;;;;5020841;28;20113;-59
2023/08/18 05:36:59;;;;;;;9.48;5.22;;;17.40;99.90;;;;;;5011728;28;20120;-59
2023/08/18 05:39:25;;;;;;;8.95;4.95;;;17.40;99.90;;;;;;5024448;28;20426;-59
2023/08/18 05:41:51;;;;;;;8.05;5.53;;;;;;;;;;5024856;28;20113;-60
2023/08/18 05:44:16;;;;;;;9.55;5.32;;;17.50;99.90;;;;;;5023531;28;20099;-59
2023/08/18 05:46:42;;;;;;;10.50;5.45;;;17.10;99.90;;;;;;5032499;28;20032;-60
2023/08/18 05:49:10;;;;;;;8.60;4.72;;;17.20;99.90;;;;;;5035976;28;20044;-59
2023/08/18 05:51:35;;;;;;;11.45;5.72;;;17.20;99.90;;;;;;5026012;28;20072;-60
2023/08/18 05:54:03;;;;;;;9.02;5.22;;;17.50;99.90;;;;;;5039842;28;20033;-58
2023/08/18 05:56:29;;;;;;;9.80;5.88;;;17.20;99.90;;;;;;5029349;28;20053;-60
2023/08/18 05:58:55;;;;;;;9.85;4.85;;;17.20;99.90;;;;;;5010189;28;20130;-59
2023/08/18 06:01:20;;;;;;;8.07;4.97;;;17.50;99.90;;;;;;5031175;28;20033;-59
2023/08/18 06:03:46;;;;;;;10.73;5.28;;;17.90;99.90;;;;;;5038409;28;20072;-58
2023/08/18 06:06:12;;;;;;;11.48;5.25;;;17.40;99.90;;;;;;5026637;28;20095;-60
2023/08/18 06:08:37;;;;;;;7.32;4.65;;;17.50;99.90;;;;;;5031793;28;20041;-60
2023/08/18 06:11:03;;;;;;;7.45;3.88;;;17.40;1.00;;;;;;5031358;28;20399;-60
2023/08/18 06:13:29;;;;;;;8.13;4.80;;;17.60;1.00;;;;;;5042647;28;20407;-59
2023/08/18 06:15:54;;;;;;;9.07;5.00;;;18.00;1.00;;;;;;5027160;28;20128;-60
2023/08/18 06:18:21;;;;;;;8.00;4.95;;;17.60;1.00;;;;;;5024852;28;20044;-60
2023/08/18 06:20:47;;;;;;;10.18;5.47;;;;;;;;;;5025728;28;20064;-60
2023/08/18 06:23:13;;;;;;;10.52;5.60;;;;;;;;;;5024577;28;20056;-59
2023/08/18 06:25:39;;;;;;;9.82;5.82;;;17.60;1.00;;;;;;5026551;28;20041;-60
2023/08/18 06:28:08;;;;;;;9.48;5.10;;;;;;;;;;5012802;28;20053;-60
2023/08/18 06:30:34;;;;;;;12.75;5.38;;;17.70;1.00;;;;;;5030619;28;20049;-59
2023/08/18 06:32:59;;;;;;;9.55;5.45;;;17.50;1.00;;;;;;5030832;28;20494;-60
2023/08/18 06:35:25;;;;;;;7.63;4.57;;;17.80;1.00;;;;;;5026162;28;20467;-60
2023/08/18 06:37:50;;;;;;;9.40;5.22;;;17.50;1.00;;;;;;5031691;28;20135;-59
2023/08/18 06:40:16;;;;;;;10.23;5.05;;;17.60;1.00;;;;;;5032412;28;20041;-60
2023/08/18 06:42:42;;;;;;;11.98;5.25;;;17.60;1.00;;;;;;5031174;28;20041;-59
2023/08/18 06:45:08;;;;;;;10.82;5.00;;;17.70;1.00;;;;;;5028552;28;20039;-59
2023/08/18 06:47:34;;;;;;;9.27;5.75;;;17.90;1.00;;;;;;5030413;28;20386;-60
2023/08/18 06:50:05;;;;;;;10.85;4.80;;;18.00;1.00;;;;;;5030513;28;20033;-59
2023/08/18 06:52:32;;;;;;;10.20;5.53;;;18.50;99.90;;;;;;5009186;28;22104;-60
2023/08/18 06:54:58;;;;;;;10.60;5.40;;;17.80;1.00;;;;;;5029721;28;20045;-60
2023/08/18 06:57:23;;;;;;;9.73;5.07;;;18.50;1.00;;;;;;5028088;28;20037;-60
2023/08/18 06:59:49;;;;;;;9.38;5.25;;;18.20;1.00;;;;;;5030888;28;20032;-60
2023/08/18 07:02:15;;;;;;;7.88;4.90;;;18.50;87.20;;;;;;5025695;28;20042;-60
2023/08/18 07:04:40;;;;;;;9.23;5.00;;;18.00;99.90;;;;;;5033514;28;20036;-60
2023/08/18 07:07:06;;;;;;;9.40;4.57;;;18.10;99.90;;;;;;5023534;28;20038;-59
2023/08/18 07:09:31;;;;;;;7.93;4.55;;;18.40;99.90;;;;;;5030956;28;20037;-59
2023/08/18 07:11:58;;;;;;;9.55;4.72;;;18.60;99.90;;;;;;5032109;28;20126;-60
2023/08/18 07:14:24;;;;;;;10.35;4.80;;;19.00;99.90;;;;;;5024290;28;20136;-59
2023/08/18 07:16:50;;;;;;;9.27;5.20;;;18.80;99.90;;;;;;5033811;28;20108;-60
2023/08/18 07:19:15;;;;;;;7.95;4.57;;;18.10;99.90;;;;;;5024538;28;20406;-60
2023/08/18 07:21:41;;;;;;;12.73;5.18;;;17.90;99.90;;;;;;5027845;28;20035;-59
2023/08/18 07:24:07;;;;;;;9.23;5.05;;;18.70;99.90;;;;;;5029463;28;20041;-59
2023/08/18 07:26:33;;;;;;;7.65;4.40;;;19.10;99.90;;;;;;5014021;28;20380;-60
2023/08/18 07:28:58;;;;;;;8.95;4.65;;;18.40;99.90;;;;;;5028677;28;20092;-60
2023/08/18 07:31:24;;;;;;;7.35;4.53;;;18.60;99.90;;;;;;5032505;28;20048;-60
2023/08/18 07:33:52;;;;;;;9.27;4.20;;;19.30;99.90;;;;;;5012695;28;20036;-60
2023/08/18 07:36:18;;;;;;;9.95;5.10;;;18.80;99.90;;;;;;5009719;28;20053;-60
2023/08/18 07:38:44;;;;;;;8.85;5.22;;;19.40;99.90;;;;;;5030290;28;20029;-60
2023/08/18 07:41:09;;;;;;;9.27;4.90;;;18.80;99.90;;;;;;5034768;28;20033;-60
2023/08/18 07:43:35;;;;;;;9.00;5.35;;;18.60;99.90;;;;;;5027634;28;20388;-60
2023/08/18 07:46:01;;;;;;;8.35;5.10;;;19.00;99.90;;;;;;5026008;28;20142;-60
2023/08/18 07:48:26;;;;;;;10.52;5.30;;;18.90;99.90;;;;;;5026606;28;20570;-60
2023/08/18 07:50:52;;;;;;;8.38;4.97;;;19.20;99.90;;;;;;5035100;28;20033;-60
2023/08/18 07:53:18;;;;;;;8.50;5.28;;;;;;;;;;5036061;28;20051;-60
2023/08/18 07:55:44;;;;;;;7.93;5.65;;;19.30;99.90;;;;;;5036910;28;20056;-59
2023/08/18 07:58:09;;;;;;;9.43;4.82;;;19.30;99.90;;;;;;5037284;28;20037;-60
2023/08/18 08:00:35;;;;;;;9.98;5.95;;;19.20;99.90;;;;;;5037863;28;20034;-60
2023/08/18 08:03:01;;;;;;;9.95;5.35;;;19.80;99.90;;;;;;5025485;28;20045;-60
2023/08/18 08:05:27;;;;;;;8.38;5.20;;;18.90;99.90;;;;;;5012265;28;21454;-60
2023/08/18 08:07:53;;;;;;;8.75;4.78;;;;;;;;;;5014359;28;20072;-60
2023/08/18 08:10:19;;;;;;;9.75;5.35;;;19.60;99.90;;;;;;5033831;28;20045;-60
2023/08/18 08:12:45;;;;;;;9.18;4.95;;;19.90;99.90;;;;;;5028063;28;20043;-59
2023/08/18 08:15:13;;;;;;;9.48;5.63;;;18.80;99.90;;;;;;5033710;28;20041;-60
2023/08/18 08:17:39;;;;;;;8.73;4.63;;;20.20;99.90;;;;;;5038742;28;20048;-61
2023/08/18 08:20:16;;;;;;;8.93;4.53;;;19.80;99.90;;;;;;5041395;28;20033;-59
2023/08/18 08:22:48;;;;;;;9.05;4.95;;;20.00;99.90;;;;;;5034209;28;20045;-60
2023/08/18 08:25:14;;;;;;;8.63;4.20;;;19.70;99.90;;;;;;5032447;28;20057;-60
2023/08/18 08:27:40;;;;;;;8.55;4.88;;;19.70;99.90;;;;;;5028139;28;20038;-60
2023/08/18 08:30:08;;;;;;;9.18;4.80;;;20.00;95.40;;;;;;5009057;28;20108;-60
2023/08/18 08:32:34;;;;;;;10.38;4.80;;;20.30;87.70;;;;;;5036447;28;20057;-60
2023/08/18 08:35:00;;;;;;;8.18;5.18;;;;;;;;;;5028282;28;20780;-60
2023/08/18 08:37:26;;;;;;;8.25;4.55;;;19.90;68.30;;;;;;5003906;28;20037;-60
2023/08/18 08:39:51;;;;;;;8.75;4.55;;;20.00;61.30;;;;;;5028774;28;20091;-61
2023/08/18 08:42:17;;;;;;;8.63;4.25;;;19.70;61.40;;;;;;5032410;28;20076;-60
2023/08/18 08:44:43;;;;;;;8.90;4.72;;;20.00;43.90;;;;;;5023672;28;20039;-60
2023/08/18 08:47:10;;;;;;;8.50;4.57;;;19.80;38.50;;;;;;5033104;28;20037;-60
2023/08/18 08:49:38;;;;;;;9.27;5.53;;;19.80;38.20;;;;;;5030578;28;20041;-60
2023/08/18 08:52:08;;;;;;;8.13;5.05;;;19.50;30.80;;;;;;5028208;28;20049;-60
2023/08/18 08:54:37;;;;;;;6.85;4.55;;;19.80;26.10;;;;;;5033168;28;20415;-60
2023/08/18 08:57:05;;;;;;;8.55;5.35;;;;;;;;;;5022468;28;20037;-60
2023/08/18 08:59:31;;;;;;;11.30;4.53;;;20.50;45.90;;;;;;5023437;28;20463;-60
2023/08/18 09:01:57;;;;;;;7.20;4.80;;;19.80;66.40;;;;;;5028897;28;20073;-60
2023/08/18 09:04:23;;;;;;;10.73;6.18;;;19.60;52.70;;;;;;5028147;28;20103;-60
2023/08/18 09:06:49;;;;;;;9.43;5.93;;;19.60;40.50;;;;;;5032284;28;20116;-60
2023/08/18 09:09:14;;;;;;;8.52;5.35;;;19.50;23.70;;;;;;5012006;28;20483;-59
2023/08/18 09:11:47;;;;;;;10.38;5.28;;;20.20;15.90;;;;;;5022686;28;20084;-60
2023/08/18 09:14:16;;;;;;;9.38;4.63;;;20.40;9.40;;;;;;5032338;28;20065;-60
2023/08/18 09:16:45;;;;;;;8.30;5.72;;;20.30;1.00;;;;;;5032255;28;20059;-60
2023/08/18 09:19:14;;;;;;;10.90;5.03;;;20.30;1.00;;;;;;5027613;28;20030;-60
2023/08/18 09:21:41;;;;;;;8.00;4.70;;;20.00;1.00;;;;;;5031971;28;20123;-60
2023/08/18 09:24:08;;;;;;;10.02;5.00;;;20.40;1.00;;;;;;5031292;28;20566;-59
2023/08/18 09:26:34;;;;;;;7.93;4.68;;;20.50;1.00;;;;;;5025390;28;20040;-60
2023/08/18 09:28:59;;;;;;;8.77;5.22;;;20.80;1.00;;;;;;5027283;28;20033;-59
2023/08/18 09:31:25;;;;;;;7.75;5.25;;;23.80;1.00;;;;;;5022739;28;20041;-60
2023/08/18 09:33:51;;;;;;;8.45;4.20;;;20.70;99.90;;;;;;5032441;28;20100;-59
2023/08/18 09:36:18;;;;;;;8.35;4.35;;;21.10;99.90;;;;;;5029195;28;20513;-59
2023/08/18 09:38:44;;;;;;;9.43;4.95;;;20.90;99.90;;;;;;5037715;28;20246;-60
2023/08/18 09:41:11;;;;;;;12.45;5.95;;;21.60;99.90;;;;;;5035480;28;20510;-59
2023/08/18 09:43:38;;;;;;;8.60;5.03;;;21.70;99.90;;;;;;5032627;28;20049;-60
2023/08/18 09:46:05;;;;;;;7.85;5.18;;;21.10;99.90;;;;;;5028761;28;20029;-60
2023/08/18 09:48:35;;;;;;;8.18;5.13;;;21.00;99.90;;;;;;5030895;28;20521;-60
2023/08/18 09:51:01;;;;;;;7.38;4.90;;;20.60;99.90;;;;;;5029521;28;20045;-59
2023/08/18 09:53:30;;;;;;;7.70;4.45;;;21.40;99.90;;;;;;5012907;28;20131;-60
2023/08/18 09:56:04;;;;;;;9.18;5.28;;;21.70;99.90;;;;;;5029322;28;20065;-60
2023/08/18 09:58:43;;;;;;;8.07;4.90;;;21.20;99.90;;;;;;5025637;28;20037;-60
2023/08/18 10:01:10;;;;;;;7.88;5.30;;;21.30;99.90;;;;;;5027433;28;20040;-60
2023/08/18 10:03:38;;;;;;;8.05;5.05;;;21.00;99.90;;;;;;5032835;28;20068;-60
2023/08/18 10:06:07;;;;;;;9.48;5.80;;;21.10;99.90;;;;;;5015255;28;20036;-60
2023/08/18 10:08:34;;;;;;;7.88;5.25;;;22.00;99.90;;;;;;5017229;28;20033;-60
2023/08/18 10:11:01;;;;;;;10.27;5.38;;;21.20;99.90;;;;;;5032512;28;20635;-60
2023/08/18 10:13:31;;;;;;;12.02;5.95;;;22.00;98.90;;;;;;5030448;28;20044;-60
2023/08/18 10:15:57;;;;;;;11.35;6.25;;;22.20;96.50;;;;;;5027357;28;20099;-60
2023/08/18 10:18:23;;;;;;;11.52;5.85;;;22.00;89.00;;;;;;5013531;28;20041;-60
2023/08/18 10:20:53;;;;;;;13.00;6.60;;;22.10;78.10;;;;;;5031127;28;20506;-60
2023/08/18 10:23:22;;;;;;;8.77;6.10;;;22.00;59.40;;;;;;5029637;28;20119;-60
2023/08/18 10:25:52;;;;;;;8.85;5.10;;;22.10;36.50;;;;;;5023276;28;20049;-60
2023/08/18 10:28:19;;;;;;;11.57;6.15;;;22.40;26.90;;;;;;5032305;28;20462;-59
2023/08/18 10:31:04;;;;;;;10.82;6.78;;;22.00;24.70;;;;;;5032043;28;20044;-60
2023/08/18 10:33:32;;;;;;;;;;;22.10;6.60;;;;;;5026599;28;20048;-60
2023/08/18 10:36:01;;;;;;;13.40;6.50;;;22.30;10.90;;;;;;5029916;28;19988;-59
2023/08/18 10:38:32;;;;;;;8.02;4.53;;;22.70;14.90;;;;;;5033804;28;20037;-59
2023/08/18 10:40:58;;;;;;;9.25;5.55;;;22.70;3.40;;;;;;5036597;28;20375;-57
2023/08/18 10:43:28;;;;;;;11.13;6.47;;;22.80;1.00;;;;;;5032102;28;20041;-58
2023/08/18 10:46:01;;;;;;;9.70;5.18;;;22.90;1.00;;;;;;5031924;28;20088;-59
2023/08/18 10:48:32;;;;;;;10.90;6.28;;;22.90;1.00;;;;;;5027918;28;20089;-59
2023/08/18 10:50:58;;;;;;;10.38;6.20;;;23.00;1.00;;;;;;5032150;28;20065;-59
2023/08/18 10:53:24;;;;;;;11.73;6.07;;;23.20;1.00;;;;;;5031316;28;20166;-59
2023/08/18 10:55:53;;;;;;;15.38;6.18;;;23.10;99.90;;;;;;5027924;28;20049;-59
2023/08/18 10:58:20;;;;;;;11.50;6.35;;;23.30;99.90;;;;;;5032600;28;20053;-59
2023/08/18 11:00:46;;;;;;;10.55;6.10;;;23.30;99.90;;;;;;5031754;28;20089;-59
2023/08/18 11:03:12;;;;;;;14.10;6.22;;;23.60;99.90;;;;;;5032885;28;20076;-59
2023/08/18 11:05:39;;;;;;;11.55;6.15;;;23.30;99.90;;;;;;5034807;28;20041;-58
2023/08/18 11:08:09;;;;;;;10.90;6.80;;;23.40;99.90;;;;;;5020624;28;20158;-59
2023/08/18 11:10:38;;;;;;;10.95;6.13;;;23.10;99.90;;;;;;5033790;28;20573;-59
2023/08/18 11:13:04;;;;;;;10.90;5.88;;;23.80;99.90;;;;;;5033784;28;20456;-58
2023/08/18 11:15:30;;;;;;;9.95;6.22;;;23.50;99.90;;;;;;5034248;28;20037;-59
2023/08/18 11:17:55;;;;;;;11.50;6.55;;;23.30;99.90;;;;;;5033121;28;20033;-58
2023/08/18 11:20:22;;;;;;;11.20;6.43;;;23.70;99.90;;;;;;5035709;28;20116;-59
2023/08/18 11:22:51;;;;;;;10.50;6.38;;;23.80;99.90;;;;;;5039226;28;20356;-60
2023/08/18 11:25:17;;;;;;;13.82;6.88;;;23.40;99.90;;;;;;5039634;28;20040;-59
2023/08/18 11:27:45;;;;;;;12.63;7.00;;;23.50;99.90;;;;;;5019355;28;20992;-59
2023/08/18 11:30:12;;;;;;;11.30;6.53;;;24.00;99.90;;;;;;5037958;28;20041;-59
2023/08/18 11:32:39;;;;;;;12.73;6.85;;;23.80;99.90;;;;;;5032073;28;20415;-59
2023/08/18 11:35:09;;;;;;;11.38;6.10;;;23.40;99.90;;;;;;5041343;28;20045;-58
2023/08/18 11:37:44;;;;;;;12.32;6.13;;;23.50;99.90;;;;;;5035478;28;20584;-59
2023/08/18 11:40:19;;;;;;;12.35;6.10;;;23.20;99.90;;;;;;5032510;28;20499;-59
2023/08/18 11:42:48;;;;;;;12.98;7.10;;;23.40;99.90;;;;;;5033007;28;20043;-58
2023/08/18 11:45:17;;;;;;;11.43;6.47;;;23.20;99.90;;;;;;5037958;28;20091;-59
2023/08/18 11:47:44;;;;;;;12.65;6.55;;;23.20;99.90;;;;;;5031351;28;20076;-57
2023/08/18 11:50:12;;;;;;;12.05;6.95;;;23.90;99.90;;;;;;5020466;28;20482;-59
2023/08/18 11:52:50;;;;;;;13.93;6.85;;;23.40;99.90;;;;;;5018950;28;20095;-59
2023/08/18 11:55:28;;;;;;;12.52;6.63;;;23.50;99.90;;;;;;5019268;28;20124;-59
2023/08/18 11:57:53;;;;;;;10.48;6.10;;;23.50;99.90;;;;;;5035288;28;20045;-59
2023/08/18 12:00:20;;;;;;;10.95;5.93;;;25.00;99.90;;;;;;5035547;28;20041;-59
2023/08/18 12:02:47;;;;;;;10.85;5.75;;;23.60;99.90;;;;;;5016722;28;20044;-60
2023/08/18 12:05:21;;;;;;;12.35;7.13;;;24.30;99.90;;;;;;5029621;28;20039;-60
2023/08/18 12:07:51;;;;;;;10.25;6.55;;;23.50;99.90;;;;;;5028697;28;20499;-61
2023/08/18 12:10:18;;;;;;;12.30;6.47;;;23.90;99.90;;;;;;5037881;28;20091;-59
2023/08/18 12:12:49;;;;;;;12.38;6.25;;;23.40;99.90;;;;;;5032325;28;20721;-59
2023/08/18 12:15:14;;;;;;;11.90;5.43;;;23.50;99.90;;;;;;5016467;28;20131;-59
2023/08/18 12:17:40;;;;;;;9.68;4.97;;;24.60;99.90;;;;;;5025541;28;20486;-60
2023/08/18 12:20:06;;;;;;;8.70;5.20;;;24.80;99.90;;;;;;5025749;28;20033;-59
2023/08/18 12:22:32;;;;;;;11.85;6.80;;;25.00;99.90;;;;;;5011505;28;20045;-59
2023/08/18 12:24:58;;;;;;;12.05;6.68;;;26.50;99.90;;;;;;5025204;28;20091;-60
2023/08/18 12:27:26;;;;;;;9.35;5.88;;;25.10;99.90;;;;;;5032085;28;20042;-59
2023/08/18 12:29:52;;;;;;;10.40;5.40;;;24.20;99.90;;;;;;5031315;28;20041;-60
2023/08/18 12:32:17;;;;;;;9.30;5.60;;;24.30;99.90;;;;;;5031782;28;20041;-60
2023/08/18 12:34:43;;;;;;;11.20;5.88;;;24.30;99.90;;;;;;5033924;28;20065;-59
2023/08/18 12:37:09;;;;;;;11.07;5.70;;;25.50;99.90;;;;;;5021418;28;20522;-60
2023/08/18 12:39:34;;;;;;;12.48;7.10;;;25.30;99.90;;;;;;5036803;28;20040;-60
2023/08/18 12:42:00;;;;;;;9.40;6.22;;;25.60;99.90;;;;;;5033640;28;20036;-59
2023/08/18 12:44:25;;;;;;;7.95;5.40;;;24.80;99.90;;;;;;5024890;28;20065;-60
2023/08/18 12:46:51;;;;;;;10.85;6.13;;;26.20;99.90;;;;;;5029500;28;20048;-60
2023/08/18 12:49:17;;;;;;;7.43;5.10;;;26.30;99.90;;;;;;5035687;28;20047;-60
2023/08/18 12:51:42;;;;;;;9.82;5.90;;;26.10;99.90;;;;;;5011071;28;20041;-60
2023/08/18 12:54:08;;;;;;;10.50;6.07;;;26.80;96.60;;;;;;5030706;28;20449;-59